sensor_id;sensor_type;location;lat;lon;timestamp;pressure;altitude;pressure_sealevel;temperature;humidity
56074;BME280;41950;55.840;37.442;2023-02-05T00:00:16;100291.56;;;-1.55;79.01
56074;BME280;41950;55.840;37.442;2023-02-05T00:02:42;100315.09;;;-1.40;78.77
56074;BME280;41950;55.840;37.442;2023-02-05T00:05:08;100327.88;;;-1.38;78.69
56074;BME280;41950;55.840;37.442;2023-02-05T00:07:33;100301.81;;;-1.53;78.76
56074;BME280;41950;55.840;37.442;2023-02-05T00:09:59;100331.19;;;-1.41;78.76
56074;BME280;41950;55.840;37.442;2023-02-05T00:12:25;100318.25;;;-1.45;78.49
56074;BME280;41950;55.840;37.442;2023-02-05T00:14:51;100323.34;;;-1.45;78.58
56074;BME280;41950;55.840;37.442;2023-02-05T00:17:16;100321.75;;;-1.43;78.51
56074;BME280;41950;55.840;37.442;2023-02-05T00:19:42;100323.34;;;-1.45;78.36
56074;BME280;41950;55.840;37.442;2023-02-05T00:22:07;100311.00;;;-1.57;78.31
56074;BME280;41950;55.840;37.442;2023-02-05T00:24:33;100304.00;;;-1.63;78.32
56074;BME280;41950;55.840;37.442;2023-02-05T00:26:59;100324.84;;;-1.50;78.30
56074;BME280;41950;55.840;37.442;2023-02-05T00:29:24;100331.69;;;-1.49;78.19
56074;BME280;41950;55.840;37.442;2023-02-05T00:31:50;100324.53;;;-1.58;78.24
56074;BME280;41950;55.840;37.442;2023-02-05T00:34:17;100306.31;;;-1.67;78.11
56074;BME280;41950;55.840;37.442;2023-02-05T00:36:43;100321.13;;;-1.59;78.00
56074;BME280;41950;55.840;37.442;2023-02-05T00:39:09;100342.66;;;-1.50;77.88
56074;BME280;41950;55.840;37.442;2023-02-05T00:41:36;100340.13;;;-1.50;78.00
56074;BME280;41950;55.840;37.442;2023-02-05T00:44:02;100348.75;;;-1.47;78.45
56074;BME280;41950;55.840;37.442;2023-02-05T00:46:28;100345.41;;;-1.46;78.12
56074;BME280;41950;55.840;37.442;2023-02-05T00:48:54;100338.31;;;-1.53;78.02
56074;BME280;41950;55.840;37.442;2023-02-05T00:51:19;100336.78;;;-1.49;78.23
56074;BME280;41950;55.840;37.442;2023-02-05T00:53:45;100351.22;;;-1.48;77.92
56074;BME280;41950;55.840;37.442;2023-02-05T00:56:11;100287.88;;;-1.82;78.06
56074;BME280;41950;55.840;37.442;2023-02-05T00:58:36;100343.47;;;-1.51;78.15
56074;BME280;41950;55.840;37.442;2023-02-05T01:01:02;100334.38;;;-1.66;78.11
56074;BME280;41950;55.840;37.442;2023-02-05T01:03:28;100327.63;;;-1.65;78.51
56074;BME280;41950;55.840;37.442;2023-02-05T01:05:54;100348.69;;;-1.48;78.49
56074;BME280;41950;55.840;37.442;2023-02-05T01:08:20;100351.47;;;-1.42;78.38
56074;BME280;41950;55.840;37.442;2023-02-05T01:10:48;100356.50;;;-1.44;78.03
56074;BME280;41950;55.840;37.442;2023-02-05T01:13:15;100344.97;;;-1.57;78.05
56074;BME280;41950;55.840;37.442;2023-02-05T01:15:42;100358.88;;;-1.48;77.93
56074;BME280;41950;55.840;37.442;2023-02-05T01:18:08;100361.22;;;-1.53;78.14
56074;BME280;41950;55.840;37.442;2023-02-05T01:20:38;100311.53;;;-1.85;78.44
56074;BME280;41950;55.840;37.442;2023-02-05T01:23:04;100329.72;;;-1.76;78.35
56074;BME280;41950;55.840;37.442;2023-02-05T01:25:30;100333.00;;;-1.78;78.45
56074;BME280;41950;55.840;37.442;2023-02-05T01:27:56;100365.94;;;-1.62;78.36
56074;BME280;41950;55.840;37.442;2023-02-05T01:30:21;100331.88;;;-1.85;78.61
56074;BME280;41950;55.840;37.442;2023-02-05T01:32:47;100358.66;;;-1.74;78.76
56074;BME280;41950;55.840;37.442;2023-02-05T01:35:13;100343.94;;;-1.81;79.30
56074;BME280;41950;55.840;37.442;2023-02-05T01:37:39;100352.25;;;-1.85;78.97
56074;BME280;41950;55.840;37.442;2023-02-05T01:40:05;100366.03;;;-1.80;79.00
56074;BME280;41950;55.840;37.442;2023-02-05T01:42:32;100372.16;;;-1.75;78.97
56074;BME280;41950;55.840;37.442;2023-02-05T01:47:58;100369.44;;;-1.79;79.40
56074;BME280;41950;55.840;37.442;2023-02-05T01:50:34;100368.69;;;-1.77;79.43
56074;BME280;41950;55.840;37.442;2023-02-05T01:53:05;100335.63;;;-1.96;78.76
56074;BME280;41950;55.840;37.442;2023-02-05T01:55:35;100377.94;;;-1.79;78.70
56074;BME280;41950;55.840;37.442;2023-02-05T01:58:02;100343.38;;;-1.93;78.64
56074;BME280;41950;55.840;37.442;2023-02-05T02:00:29;100318.13;;;-2.09;78.64
56074;BME280;41950;55.840;37.442;2023-02-05T02:02:55;100360.56;;;-1.89;78.77
56074;BME280;41950;55.840;37.442;2023-02-05T02:05:20;100380.47;;;-1.79;78.84
56074;BME280;41950;55.840;37.442;2023-02-05T02:07:46;100378.00;;;-1.77;78.67
56074;BME280;41950;55.840;37.442;2023-02-05T02:10:14;100380.56;;;-1.77;78.98
56074;BME280;41950;55.840;37.442;2023-02-05T02:12:42;100379.69;;;-1.78;78.96
56074;BME280;41950;55.840;37.442;2023-02-05T02:15:16;100378.88;;;-1.77;78.89
56074;BME280;41950;55.840;37.442;2023-02-05T02:17:46;100384.03;;;-1.75;78.63
56074;BME280;41950;55.840;37.442;2023-02-05T02:20:27;100369.19;;;-1.85;78.83
56074;BME280;41950;55.840;37.442;2023-02-05T02:30:45;100358.94;;;-1.87;78.36
56074;BME280;41950;55.840;37.442;2023-02-05T02:33:45;100389.38;;;-1.69;77.97
56074;BME280;41950;55.840;37.442;2023-02-05T02:38:54;100393.25;;;-1.58;77.92
56074;BME280;41950;55.840;37.442;2023-02-05T02:47:02;100368.69;;;-1.77;77.54
56074;BME280;41950;55.840;37.442;2023-02-05T02:49:36;100392.91;;;-1.66;77.42
56074;BME280;41950;55.840;37.442;2023-02-05T02:52:06;100383.41;;;-1.70;77.17
56074;BME280;41950;55.840;37.442;2023-02-05T02:54:35;100397.69;;;-1.73;77.52
56074;BME280;41950;55.840;37.442;2023-02-05T02:57:06;100367.63;;;-1.82;77.42
56074;BME280;41950;55.840;37.442;2023-02-05T02:59:36;100403.91;;;-1.67;77.22
56074;BME280;41950;55.840;37.442;2023-02-05T03:02:05;100400.41;;;-1.69;77.15
56074;BME280;41950;55.840;37.442;2023-02-05T03:04:36;100409.22;;;-1.62;77.16
56074;BME280;41950;55.840;37.442;2023-02-05T03:07:25;100405.06;;;-1.60;76.67
56074;BME280;41950;55.840;37.442;2023-02-05T03:10:00;100395.56;;;-1.64;76.57
56074;BME280;41950;55.840;37.442;2023-02-05T03:12:29;100390.72;;;-1.77;76.42
56074;BME280;41950;55.840;37.442;2023-02-05T03:14:55;100404.19;;;-1.61;76.35
56074;BME280;41950;55.840;37.442;2023-02-05T03:17:22;100393.88;;;-1.64;76.23
56074;BME280;41950;55.840;37.442;2023-02-05T03:20:09;100411.28;;;-1.53;75.92
56074;BME280;41950;55.840;37.442;2023-02-05T03:22:36;100412.00;;;-1.56;76.15
56074;BME280;41950;55.840;37.442;2023-02-05T03:25:02;100346.16;;;-1.89;76.11
56074;BME280;41950;55.840;37.442;2023-02-05T03:27:29;100413.69;;;-1.57;75.89
56074;BME280;41950;55.840;37.442;2023-02-05T03:29:56;100404.94;;;-1.63;75.88
56074;BME280;41950;55.840;37.442;2023-02-05T03:35:24;100414.38;;;-1.61;76.08
56074;BME280;41950;55.840;37.442;2023-02-05T03:38:05;100418.53;;;-1.63;76.00
56074;BME280;41950;55.840;37.442;2023-02-05T03:49:01;100400.16;;;-1.94;75.62
56074;BME280;41950;55.840;37.442;2023-02-05T03:51:39;100381.69;;;-2.09;75.62
56074;BME280;41950;55.840;37.442;2023-02-05T03:54:15;100405.97;;;-1.97;75.38
56074;BME280;41950;55.840;37.442;2023-02-05T03:59:32;100423.31;;;-2.07;75.00
56074;BME280;41950;55.840;37.442;2023-02-05T04:01:58;100379.59;;;-2.37;74.85
56074;BME280;41950;55.840;37.442;2023-02-05T04:04:24;100387.00;;;-2.42;75.04
56074;BME280;41950;55.840;37.442;2023-02-05T04:06:51;100428.28;;;-2.28;75.10
56074;BME280;41950;55.840;37.442;2023-02-05T04:09:18;100418.53;;;-2.38;75.57
56074;BME280;41950;55.840;37.442;2023-02-05T04:11:44;100424.41;;;-2.39;75.16
56074;BME280;41950;55.840;37.442;2023-02-05T04:14:09;100419.09;;;-2.44;75.40
56074;BME280;41950;55.840;37.442;2023-02-05T04:16:35;100432.91;;;-2.39;75.68
56074;BME280;41950;55.840;37.442;2023-02-05T04:19:01;100412.72;;;-2.54;75.63
56074;BME280;41950;55.840;37.442;2023-02-05T04:21:27;100430.00;;;-2.46;75.59
56074;BME280;41950;55.840;37.442;2023-02-05T04:23:53;100435.31;;;-2.42;75.88
56074;BME280;41950;55.840;37.442;2023-02-05T04:26:19;100430.72;;;-2.49;75.88
56074;BME280;41950;55.840;37.442;2023-02-05T04:28:45;100429.34;;;-2.60;76.18
56074;BME280;41950;55.840;37.442;2023-02-05T04:31:11;100428.25;;;-2.65;76.41
56074;BME280;41950;55.840;37.442;2023-02-05T04:33:38;100458.03;;;-2.63;76.51
56074;BME280;41950;55.840;37.442;2023-02-05T04:36:04;100437.03;;;-2.76;76.58
56074;BME280;41950;55.840;37.442;2023-02-05T04:38:30;100435.59;;;-2.71;76.87
56074;BME280;41950;55.840;37.442;2023-02-05T04:40:55;100450.34;;;-2.64;76.85
56074;BME280;41950;55.840;37.442;2023-02-05T04:43:22;100453.09;;;-2.60;76.84
56074;BME280;41950;55.840;37.442;2023-02-05T04:45:47;100462.53;;;-2.57;77.13
56074;BME280;41950;55.840;37.442;2023-02-05T04:48:13;100451.94;;;-2.66;77.27
56074;BME280;41950;55.840;37.442;2023-02-05T04:50:39;100445.09;;;-2.67;77.15
56074;BME280;41950;55.840;37.442;2023-02-05T04:53:04;100456.22;;;-2.65;77.37
56074;BME280;41950;55.840;37.442;2023-02-05T04:55:31;100473.19;;;-2.64;77.60
56074;BME280;41950;55.840;37.442;2023-02-05T04:57:57;100472.25;;;-2.66;77.96
56074;BME280;41950;55.840;37.442;2023-02-05T05:00:23;100479.09;;;-2.65;78.16
56074;BME280;41950;55.840;37.442;2023-02-05T05:02:48;100477.34;;;-2.66;78.36
56074;BME280;41950;55.840;37.442;2023-02-05T05:05:14;100453.22;;;-2.92;78.43
56074;BME280;41950;55.840;37.442;2023-02-05T05:07:40;100485.16;;;-2.80;78.62
56074;BME280;41950;55.840;37.442;2023-02-05T05:10:06;100479.34;;;-2.95;78.73
56074;BME280;41950;55.840;37.442;2023-02-05T05:12:33;100495.75;;;-2.88;78.86
56074;BME280;41950;55.840;37.442;2023-02-05T05:14:59;100496.47;;;-2.91;78.96
56074;BME280;41950;55.840;37.442;2023-02-05T05:17:25;100495.44;;;-2.94;79.13
56074;BME280;41950;55.840;37.442;2023-02-05T05:19:50;100503.53;;;-3.01;79.19
56074;BME280;41950;55.840;37.442;2023-02-05T05:22:16;100494.75;;;-3.08;79.30
56074;BME280;41950;55.840;37.442;2023-02-05T05:24:42;100505.56;;;-3.12;79.43
56074;BME280;41950;55.840;37.442;2023-02-05T05:27:07;100477.66;;;-3.28;79.56
56074;BME280;41950;55.840;37.442;2023-02-05T05:29:34;100509.03;;;-3.10;79.63
56074;BME280;41950;55.840;37.442;2023-02-05T05:31:59;100513.25;;;-3.11;79.46
56074;BME280;41950;55.840;37.442;2023-02-05T05:34:25;100495.88;;;-3.19;79.54
56074;BME280;41950;55.840;37.442;2023-02-05T05:36:51;100503.34;;;-3.22;79.66
56074;BME280;41950;55.840;37.442;2023-02-05T05:39:18;100501.63;;;-3.23;79.57
56074;BME280;41950;55.840;37.442;2023-02-05T05:42:02;100515.41;;;-3.18;79.73
56074;BME280;41950;55.840;37.442;2023-02-05T05:44:46;100525.78;;;-3.14;79.71
56074;BME280;41950;55.840;37.442;2023-02-05T05:47:17;100529.34;;;-3.10;79.56
56074;BME280;41950;55.840;37.442;2023-02-05T05:49:43;100529.56;;;-3.05;79.39
56074;BME280;41950;55.840;37.442;2023-02-05T05:52:09;100522.38;;;-2.98;79.11
56074;BME280;41950;55.840;37.442;2023-02-05T05:54:35;100515.03;;;-2.92;78.84
56074;BME280;41950;55.840;37.442;2023-02-05T05:57:01;100520.72;;;-2.80;78.65
56074;BME280;41950;55.840;37.442;2023-02-05T05:59:27;100521.19;;;-2.70;78.54
56074;BME280;41950;55.840;37.442;2023-02-05T06:01:53;100474.13;;;-2.98;78.21
56074;BME280;41950;55.840;37.442;2023-02-05T06:04:19;100508.22;;;-2.75;77.83
56074;BME280;41950;55.840;37.442;2023-02-05T06:06:46;100525.63;;;-2.66;77.61
56074;BME280;41950;55.840;37.442;2023-02-05T06:09:11;100533.09;;;-2.69;77.77
56074;BME280;41950;55.840;37.442;2023-02-05T06:11:37;100529.63;;;-2.71;77.66
56074;BME280;41950;55.840;37.442;2023-02-05T06:14:03;100492.97;;;-2.93;77.51
56074;BME280;41950;55.840;37.442;2023-02-05T06:16:28;100535.06;;;-2.64;77.42
56074;BME280;41950;55.840;37.442;2023-02-05T06:18:54;100525.91;;;-2.60;77.07
56074;BME280;41950;55.840;37.442;2023-02-05T06:21:20;100511.16;;;-2.67;76.86
56074;BME280;41950;55.840;37.442;2023-02-05T06:23:46;100529.25;;;-2.61;76.62
56074;BME280;41950;55.840;37.442;2023-02-05T06:26:11;100545.09;;;-2.49;76.51
56074;BME280;41950;55.840;37.442;2023-02-05T06:28:37;100534.41;;;-2.60;76.21
56074;BME280;41950;55.840;37.442;2023-02-05T06:31:03;100492.13;;;-2.75;76.17
56074;BME280;41950;55.840;37.442;2023-02-05T06:33:29;100533.16;;;-2.50;76.17
56074;BME280;41950;55.840;37.442;2023-02-05T06:35:55;100522.84;;;-2.53;75.96
56074;BME280;41950;55.840;37.442;2023-02-05T06:38:20;100555.19;;;-2.33;75.76
56074;BME280;41950;55.840;37.442;2023-02-05T06:40:47;100539.59;;;-2.40;75.77
56074;BME280;41950;55.840;37.442;2023-02-05T06:43:13;100560.72;;;-2.24;75.41
56074;BME280;41950;55.840;37.442;2023-02-05T06:45:39;100525.28;;;-2.38;75.28
56074;BME280;41950;55.840;37.442;2023-02-05T06:48:04;100537.47;;;-2.31;75.10
56074;BME280;41950;55.840;37.442;2023-02-05T06:50:30;100574.56;;;-2.19;74.84
56074;BME280;41950;55.840;37.442;2023-02-05T06:52:56;100557.50;;;-2.20;74.76
56074;BME280;41950;55.840;37.442;2023-02-05T06:55:21;100576.38;;;-2.16;74.79
56074;BME280;41950;55.840;37.442;2023-02-05T06:57:47;100565.06;;;-2.21;74.66
56074;BME280;41950;55.840;37.442;2023-02-05T07:00:14;100564.78;;;-2.27;74.76
56074;BME280;41950;55.840;37.442;2023-02-05T07:02:41;100547.66;;;-2.31;74.75
56074;BME280;41950;55.840;37.442;2023-02-05T07:05:07;100566.25;;;-2.14;74.68
56074;BME280;41950;55.840;37.442;2023-02-05T07:07:33;100572.56;;;-2.06;74.47
56074;BME280;41950;55.840;37.442;2023-02-05T07:09:58;100573.50;;;-2.04;74.41
56074;BME280;41950;55.840;37.442;2023-02-05T07:12:24;100568.56;;;-2.01;74.31
56074;BME280;41950;55.840;37.442;2023-02-05T07:14:50;100568.72;;;-1.98;74.06
56074;BME280;41950;55.840;37.442;2023-02-05T07:17:15;100568.28;;;-1.90;74.17
56074;BME280;41950;55.840;37.442;2023-02-05T07:19:41;100550.56;;;-1.88;73.74
56074;BME280;41950;55.840;37.442;2023-02-05T07:22:07;100580.53;;;-1.63;73.19
56074;BME280;41950;55.840;37.442;2023-02-05T07:24:33;100589.13;;;-1.42;73.00
56074;BME280;41950;55.840;37.442;2023-02-05T07:26:59;100587.09;;;-1.31;72.31
56074;BME280;41950;55.840;37.442;2023-02-05T07:29:24;100545.38;;;-1.52;72.01
56074;BME280;41950;55.840;37.442;2023-02-05T07:31:51;100593.09;;;-1.10;71.50
56074;BME280;41950;55.840;37.442;2023-02-05T07:34:17;100595.66;;;-1.10;70.63
56074;BME280;41950;55.840;37.442;2023-02-05T07:36:43;100583.59;;;-1.14;70.80
56074;BME280;41950;55.840;37.442;2023-02-05T07:39:09;100589.97;;;-1.04;70.23
56074;BME280;41950;55.840;37.442;2023-02-05T07:41:34;100595.06;;;-1.04;69.90
56074;BME280;41950;55.840;37.442;2023-02-05T07:44:00;100596.00;;;-1.02;70.29
56074;BME280;41950;55.840;37.442;2023-02-05T07:46:26;100596.75;;;-1.05;69.75
56074;BME280;41950;55.840;37.442;2023-02-05T07:48:53;100604.31;;;-1.06;69.55
56074;BME280;41950;55.840;37.442;2023-02-05T07:51:20;100594.25;;;-1.03;69.78
56074;BME280;41950;55.840;37.442;2023-02-05T07:53:47;100592.38;;;-1.07;69.56
56074;BME280;41950;55.840;37.442;2023-02-05T07:56:14;100602.50;;;-1.09;69.21
56074;BME280;41950;55.840;37.442;2023-02-05T07:58:40;100605.31;;;-1.03;69.36
56074;BME280;41950;55.840;37.442;2023-02-05T08:01:06;100591.84;;;-1.00;68.96
56074;BME280;41950;55.840;37.442;2023-02-05T08:03:32;100611.63;;;-0.95;68.67
56074;BME280;41950;55.840;37.442;2023-02-05T08:06:02;100605.38;;;-1.01;68.42
56074;BME280;41950;55.840;37.442;2023-02-05T08:08:28;100595.88;;;-1.05;68.71
56074;BME280;41950;55.840;37.442;2023-02-05T08:10:56;100593.03;;;-0.92;67.74
56074;BME280;41950;55.840;37.442;2023-02-05T08:13:22;100614.09;;;-0.77;67.54
56074;BME280;41950;55.840;37.442;2023-02-05T08:15:48;100579.44;;;-0.93;67.48
56074;BME280;41950;55.840;37.442;2023-02-05T08:18:13;100597.38;;;-0.89;67.34
56074;BME280;41950;55.840;37.442;2023-02-05T08:20:39;100611.81;;;-0.90;67.88
56074;BME280;41950;55.840;37.442;2023-02-05T08:23:05;100609.19;;;-0.91;68.06
56074;BME280;41950;55.840;37.442;2023-02-05T08:25:30;100582.34;;;-1.04;68.29
56074;BME280;41950;55.840;37.442;2023-02-05T08:27:56;100611.56;;;-0.96;68.18
56074;BME280;41950;55.840;37.442;2023-02-05T08:30:22;100601.53;;;-1.11;68.23
56074;BME280;41950;55.840;37.442;2023-02-05T08:32:48;100609.41;;;-1.06;68.56
56074;BME280;41950;55.840;37.442;2023-02-05T08:35:15;100616.50;;;-0.99;68.47
56074;BME280;41950;55.840;37.442;2023-02-05T08:37:41;100622.00;;;-0.90;68.36
56074;BME280;41950;55.840;37.442;2023-02-05T08:40:07;100618.56;;;-0.71;68.17
56074;BME280;41950;55.840;37.442;2023-02-05T08:42:33;100614.00;;;-0.59;67.44
56074;BME280;41950;55.840;37.442;2023-02-05T08:44:59;100571.75;;;-0.73;66.94
56074;BME280;41950;55.840;37.442;2023-02-05T08:47:26;100613.13;;;-0.59;66.50
56074;BME280;41950;55.840;37.442;2023-02-05T08:49:52;100617.22;;;-0.63;66.33
56074;BME280;41950;55.840;37.442;2023-02-05T08:52:18;100631.72;;;-0.62;66.63
56074;BME280;41950;55.840;37.442;2023-02-05T08:54:45;100635.88;;;-0.64;66.29
56074;BME280;41950;55.840;37.442;2023-02-05T08:57:12;100608.19;;;-0.76;66.33
56074;BME280;41950;55.840;37.442;2023-02-05T08:59:38;100636.34;;;-0.73;65.97
56074;BME280;41950;55.840;37.442;2023-02-05T09:02:04;100639.28;;;-0.83;66.31
56074;BME280;41950;55.840;37.442;2023-02-05T09:04:30;100582.19;;;-1.07;66.73
56074;BME280;41950;55.840;37.442;2023-02-05T09:06:56;100635.75;;;-0.67;66.84
56074;BME280;41950;55.840;37.442;2023-02-05T09:09:21;100589.56;;;-0.94;66.43
56074;BME280;41950;55.840;37.442;2023-02-05T09:11:47;100634.25;;;-0.62;66.56
56074;BME280;41950;55.840;37.442;2023-02-05T09:14:14;100624.19;;;-0.59;66.59
56074;BME280;41950;55.840;37.442;2023-02-05T09:16:40;100636.03;;;-0.40;66.70
56074;BME280;41950;55.840;37.442;2023-02-05T09:19:06;100626.22;;;-0.31;66.20
56074;BME280;41950;55.840;37.442;2023-02-05T09:21:33;100631.44;;;-0.28;66.17
56074;BME280;41950;55.840;37.442;2023-02-05T09:23:58;100629.41;;;-0.16;66.61
56074;BME280;41950;55.840;37.442;2023-02-05T09:26:24;100626.84;;;-0.16;65.42
56074;BME280;41950;55.840;37.442;2023-02-05T09:28:50;100638.78;;;-0.36;65.44
56074;BME280;41950;55.840;37.442;2023-02-05T09:31:18;100619.09;;;-0.59;65.67
56074;BME280;41950;55.840;37.442;2023-02-05T09:33:44;100643.13;;;-0.54;66.30
56074;BME280;41950;55.840;37.442;2023-02-05T09:36:19;100611.81;;;-0.71;66.23
56074;BME280;41950;55.840;37.442;2023-02-05T09:38:45;100604.66;;;-0.79;66.43
56074;BME280;41950;55.840;37.442;2023-02-05T09:43:47;100635.63;;;-0.89;66.75
56074;BME280;41950;55.840;37.442;2023-02-05T09:49:21;100634.97;;;-1.05;67.11
56074;BME280;41950;55.840;37.442;2023-02-05T09:51:57;100641.66;;;-1.07;67.78
56074;BME280;41950;55.840;37.442;2023-02-05T09:54:29;100642.91;;;-1.16;67.84
56074;BME280;41950;55.840;37.442;2023-02-05T09:57:10;100637.06;;;-1.14;67.95
56074;BME280;41950;55.840;37.442;2023-02-05T09:59:41;100643.78;;;-1.16;67.84
56074;BME280;41950;55.840;37.442;2023-02-05T10:02:22;100610.16;;;-1.46;67.90
56074;BME280;41950;55.840;37.442;2023-02-05T10:04:51;100649.50;;;-1.39;68.63
56074;BME280;41950;55.840;37.442;2023-02-05T10:10:25;100637.72;;;-1.37;68.73
56074;BME280;41950;55.840;37.442;2023-02-05T10:13:24;100649.53;;;-1.20;68.51
56074;BME280;41950;55.840;37.442;2023-02-05T10:16:09;100651.19;;;-1.03;68.33
56074;BME280;41950;55.840;37.442;2023-02-05T10:21:34;100642.72;;;-0.63;67.50
56074;BME280;41950;55.840;37.442;2023-02-05T10:24:38;100639.78;;;-0.53;67.06
56074;BME280;41950;55.840;37.442;2023-02-05T10:27:18;100621.69;;;-0.57;66.78
56074;BME280;41950;55.840;37.442;2023-02-05T10:35:39;100609.41;;;-0.47;66.25
56074;BME280;41950;55.840;37.442;2023-02-05T10:38:30;100632.94;;;-0.12;65.81
56074;BME280;41950;55.840;37.442;2023-02-05T10:41:05;100637.34;;;0.13;65.09
56074;BME280;41950;55.840;37.442;2023-02-05T10:43:41;100611.09;;;0.38;64.18
56074;BME280;41950;55.840;37.442;2023-02-05T10:46:13;100645.00;;;0.78;62.99
56074;BME280;41950;55.840;37.442;2023-02-05T10:48:56;100644.66;;;0.69;61.92
56074;BME280;41950;55.840;37.442;2023-02-05T10:51:39;100645.13;;;0.59;62.46
56074;BME280;41950;55.840;37.442;2023-02-05T10:54:18;100625.44;;;0.34;62.95
56074;BME280;41950;55.840;37.442;2023-02-05T10:56:46;100646.41;;;0.27;63.11
56074;BME280;41950;55.840;37.442;2023-02-05T10:59:21;100643.91;;;0.06;63.58
56074;BME280;41950;55.840;37.442;2023-02-05T11:01:48;100626.78;;;-0.17;64.49
56074;BME280;41950;55.840;37.442;2023-02-05T11:04:16;100647.00;;;-0.01;64.82
56074;BME280;41950;55.840;37.442;2023-02-05T11:06:49;100639.22;;;-0.04;64.77
56074;BME280;41950;55.840;37.442;2023-02-05T11:12:05;100645.53;;;-0.17;65.73
56074;BME280;41950;55.840;37.442;2023-02-05T11:14:36;100629.56;;;-0.32;66.07
56074;BME280;41950;55.840;37.442;2023-02-05T11:17:17;100653.75;;;-0.24;66.39
56074;BME280;41950;55.840;37.442;2023-02-05T11:19:56;100647.13;;;-0.19;66.91
56074;BME280;41950;55.840;37.442;2023-02-05T11:22:32;100657.41;;;-0.17;66.83
56074;BME280;41950;55.840;37.442;2023-02-05T11:25:18;100656.88;;;-0.29;67.72
56074;BME280;41950;55.840;37.442;2023-02-05T11:28:04;100653.41;;;-0.32;68.17
56074;BME280;41950;55.840;37.442;2023-02-05T11:30:33;100634.78;;;-0.50;68.18
56074;BME280;41950;55.840;37.442;2023-02-05T11:36:03;100654.75;;;-0.40;68.84
56074;BME280;41950;55.840;37.442;2023-02-05T11:38:33;100655.34;;;-0.26;68.89
56074;BME280;41950;55.840;37.442;2023-02-05T11:41:03;100657.09;;;-0.25;68.12
56074;BME280;41950;55.840;37.442;2023-02-05T11:43:45;100649.03;;;-0.34;68.20
56074;BME280;41950;55.840;37.442;2023-02-05T11:46:16;100653.91;;;-0.19;68.20
56074;BME280;41950;55.840;37.442;2023-02-05T11:48:48;100654.84;;;-0.17;68.11
56074;BME280;41950;55.840;37.442;2023-02-05T11:53:54;100634.78;;;-0.29;68.48
56074;BME280;41950;55.840;37.442;2023-02-05T11:56:23;100658.72;;;-0.27;68.25
56074;BME280;41950;55.840;37.442;2023-02-05T11:59:05;100644.81;;;-0.34;68.46
56074;BME280;41950;55.840;37.442;2023-02-05T12:01:34;100654.88;;;-0.37;68.45
56074;BME280;41950;55.840;37.442;2023-02-05T12:04:16;100653.84;;;-0.42;68.94
56074;BME280;41950;55.840;37.442;2023-02-05T12:09:23;100656.81;;;-0.31;69.25
56074;BME280;41950;55.840;37.442;2023-02-05T12:12:21;100658.44;;;-0.33;69.04
56074;BME280;41950;55.840;37.442;2023-02-05T12:25:57;100638.59;;;-0.80;70.11
56074;BME280;41950;55.840;37.442;2023-02-05T12:28:38;100666.78;;;-0.56;70.12
56074;BME280;41950;55.840;37.442;2023-02-05T12:31:28;100676.28;;;-0.54;69.94
56074;BME280;41950;55.840;37.442;2023-02-05T12:34:21;100668.28;;;-0.62;70.33
56074;BME280;41950;55.840;37.442;2023-02-05T12:44:44;100674.53;;;-0.34;70.51
56074;BME280;41950;55.840;37.442;2023-02-05T12:47:33;100668.19;;;-0.24;69.92
56074;BME280;41950;55.840;37.442;2023-02-05T12:51:00;100658.22;;;-0.18;70.19
56074;BME280;41950;55.840;37.442;2023-02-05T13:02:31;100668.09;;;-0.26;70.47
56074;BME280;41950;55.840;37.442;2023-02-05T13:05:19;100667.75;;;-0.34;70.43
56074;BME280;41950;55.840;37.442;2023-02-05T13:10:21;100677.84;;;-0.56;71.00
56074;BME280;41950;55.840;37.442;2023-02-05T13:12:52;100662.25;;;-0.64;71.46
56074;BME280;41950;55.840;37.442;2023-02-05T13:15:30;100676.34;;;-0.52;71.64
56074;BME280;41950;55.840;37.442;2023-02-05T13:18:14;100634.69;;;-0.72;71.71
56074;BME280;41950;55.840;37.442;2023-02-05T13:20:49;100661.63;;;-0.58;71.63
56074;BME280;41950;55.840;37.442;2023-02-05T13:23:36;100672.91;;;-0.53;71.80
56074;BME280;41950;55.840;37.442;2023-02-05T13:26:38;100679.94;;;-0.47;71.49
56074;BME280;41950;55.840;37.442;2023-02-05T13:29:27;100664.78;;;-0.64;71.53
56074;BME280;41950;55.840;37.442;2023-02-05T13:31:57;100661.84;;;-0.73;71.57
56074;BME280;41950;55.840;37.442;2023-02-05T13:34:26;100670.63;;;-0.66;71.26
56074;BME280;41950;55.840;37.442;2023-02-05T13:37:17;100689.75;;;-0.76;71.32
56074;BME280;41950;55.840;37.442;2023-02-05T13:40:14;100677.88;;;-0.95;71.67
56074;BME280;41950;55.840;37.442;2023-02-05T13:43:20;100679.34;;;-1.00;71.94
56074;BME280;41950;55.840;37.442;2023-02-05T13:46:27;100677.47;;;-1.04;72.26
56074;BME280;41950;55.840;37.442;2023-02-05T13:54:53;100694.50;;;-1.03;73.03
56074;BME280;41950;55.840;37.442;2023-02-05T14:00:13;100697.78;;;-1.05;73.41
56074;BME280;41950;55.840;37.442;2023-02-05T14:02:45;100642.03;;;-1.36;73.52
56074;BME280;41950;55.840;37.442;2023-02-05T14:05:26;100689.84;;;-1.11;73.41
56074;BME280;41950;55.840;37.442;2023-02-05T14:07:53;100665.94;;;-1.33;74.04
56074;BME280;41950;55.840;37.442;2023-02-05T14:10:40;100680.78;;;-1.24;74.07
56074;BME280;41950;55.840;37.442;2023-02-05T14:15:44;100695.03;;;-1.28;74.41
56074;BME280;41950;55.840;37.442;2023-02-05T14:20:55;100701.09;;;-1.26;74.63
56074;BME280;41950;55.840;37.442;2023-02-05T14:26:17;100707.50;;;-1.34;74.79
56074;BME280;41950;55.840;37.442;2023-02-05T14:28:45;100670.31;;;-1.66;74.84
56074;BME280;41950;55.840;37.442;2023-02-05T14:31:43;100714.47;;;-1.47;74.97
56074;BME280;41950;55.840;37.442;2023-02-05T14:34:43;100715.00;;;-1.54;75.30
56074;BME280;41950;55.840;37.442;2023-02-05T14:37:44;100672.00;;;-1.84;75.24
56074;BME280;41950;55.840;37.442;2023-02-05T14:40:30;100722.81;;;-1.68;75.39
56074;BME280;41950;55.840;37.442;2023-02-05T14:43:21;100728.34;;;-1.76;75.08
56074;BME280;41950;55.840;37.442;2023-02-05T14:45:51;100724.56;;;-1.84;75.43